sensor_id;sensor_type;location;lat;lon;timestamp;temperature;humidity
51811;DHT22;52468;40.116;18.296;2023-06-04T00:02:26;18.80;81.10
51811;DHT22;52468;40.116;18.296;2023-06-04T00:04:54;18.80;81.00
51811;DHT22;52468;40.116;18.296;2023-06-04T00:07:22;18.80;81.10
51811;DHT22;52468;40.116;18.296;2023-06-04T00:09:52;18.80;81.10
51811;DHT22;52468;40.116;18.296;2023-06-04T00:12:19;18.80;81.10
51811;DHT22;52468;40.116;18.296;2023-06-04T00:14:48;18.80;81.20
51811;DHT22;52468;40.116;18.296;2023-06-04T00:17:16;18.80;81.20
51811;DHT22;52468;40.116;18.296;2023-06-04T00:19:44;18.80;81.30
51811;DHT22;52468;40.116;18.296;2023-06-04T00:22:11;18.80;81.30
51811;DHT22;52468;40.116;18.296;2023-06-04T00:24:39;18.70;81.50
51811;DHT22;52468;40.116;18.296;2023-06-04T00:27:09;18.70;81.40
51811;DHT22;52468;40.116;18.296;2023-06-04T00:29:36;18.60;81.40
51811;DHT22;52468;40.116;18.296;2023-06-04T00:32:05;18.60;81.40
51811;DHT22;52468;40.116;18.296;2023-06-04T00:34:33;18.60;81.40
51811;DHT22;52468;40.116;18.296;2023-06-04T00:37:01;18.60;81.50
51811;DHT22;52468;40.116;18.296;2023-06-04T00:39:29;18.60;81.50
51811;DHT22;52468;40.116;18.296;2023-06-04T00:41:57;18.60;81.40
51811;DHT22;52468;40.116;18.296;2023-06-04T00:44:25;18.60;81.40
51811;DHT22;52468;40.116;18.296;2023-06-04T00:46:53;18.60;81.60
51811;DHT22;52468;40.116;18.296;2023-06-04T00:49:21;18.60;81.80
51811;DHT22;52468;40.116;18.296;2023-06-04T00:51:49;18.60;81.80
51811;DHT22;52468;40.116;18.296;2023-06-04T00:54:19;18.60;81.90
51811;DHT22;52468;40.116;18.296;2023-06-04T00:56:48;18.60;81.80
51811;DHT22;52468;40.116;18.296;2023-06-04T00:59:16;18.60;81.80
51811;DHT22;52468;40.116;18.296;2023-06-04T01:04:24;18.60;81.70
51811;DHT22;52468;40.116;18.296;2023-06-04T01:06:57;18.70;81.60
51811;DHT22;52468;40.116;18.296;2023-06-04T01:09:27;18.70;81.60
51811;DHT22;52468;40.116;18.296;2023-06-04T01:11:56;18.60;82.10
51811;DHT22;52468;40.116;18.296;2023-06-04T01:14:29;18.70;82.20
51811;DHT22;52468;40.116;18.296;2023-06-04T01:17:20;18.70;81.90
51811;DHT22;52468;40.116;18.296;2023-06-04T01:25:20;18.60;81.50
51811;DHT22;52468;40.116;18.296;2023-06-04T01:27:49;18.60;81.60
51811;DHT22;52468;40.116;18.296;2023-06-04T01:30:31;18.60;81.80
51811;DHT22;52468;40.116;18.296;2023-06-04T01:33:00;18.50;81.70
51811;DHT22;52468;40.116;18.296;2023-06-04T01:35:29;18.50;81.70
51811;DHT22;52468;40.116;18.296;2023-06-04T01:38:00;18.50;81.70
51811;DHT22;52468;40.116;18.296;2023-06-04T01:40:28;18.50;81.80
51811;DHT22;52468;40.116;18.296;2023-06-04T01:42:57;18.40;81.90
51811;DHT22;52468;40.116;18.296;2023-06-04T01:45:26;18.40;82.10
51811;DHT22;52468;40.116;18.296;2023-06-04T01:47:55;18.50;82.30
51811;DHT22;52468;40.116;18.296;2023-06-04T01:50:24;18.40;82.40
51811;DHT22;52468;40.116;18.296;2023-06-04T01:52:53;18.50;82.30
51811;DHT22;52468;40.116;18.296;2023-06-04T01:55:21;18.40;82.40
51811;DHT22;52468;40.116;18.296;2023-06-04T01:57:49;18.50;82.60
51811;DHT22;52468;40.116;18.296;2023-06-04T02:00:18;18.50;82.70
51811;DHT22;52468;40.116;18.296;2023-06-04T02:02:46;18.50;82.60
51811;DHT22;52468;40.116;18.296;2023-06-04T02:05:16;18.50;82.50
51811;DHT22;52468;40.116;18.296;2023-06-04T02:07:45;18.50;82.50
51811;DHT22;52468;40.116;18.296;2023-06-04T02:10:16;18.50;82.10
51811;DHT22;52468;40.116;18.296;2023-06-04T02:13:13;18.50;81.90
51811;DHT22;52468;40.116;18.296;2023-06-04T02:15:41;18.50;81.90
51811;DHT22;52468;40.116;18.296;2023-06-04T02:18:17;18.50;82.00
51811;DHT22;52468;40.116;18.296;2023-06-04T02:20:45;18.40;82.10
51811;DHT22;52468;40.116;18.296;2023-06-04T02:23:14;18.40;82.10
51811;DHT22;52468;40.116;18.296;2023-06-04T02:25:43;18.40;82.10
51811;DHT22;52468;40.116;18.296;2023-06-04T02:28:15;18.40;82.30
51811;DHT22;52468;40.116;18.296;2023-06-04T02:30:44;18.30;82.30
51811;DHT22;52468;40.116;18.296;2023-06-04T02:33:13;18.30;82.60
51811;DHT22;52468;40.116;18.296;2023-06-04T02:35:41;18.30;82.80
51811;DHT22;52468;40.116;18.296;2023-06-04T02:38:10;18.30;83.00
51811;DHT22;52468;40.116;18.296;2023-06-04T02:40:38;18.40;83.40
51811;DHT22;52468;40.116;18.296;2023-06-04T02:43:06;18.40;83.50
51811;DHT22;52468;40.116;18.296;2023-06-04T02:45:34;18.40;83.20
51811;DHT22;52468;40.116;18.296;2023-06-04T02:48:02;18.50;82.80
51811;DHT22;52468;40.116;18.296;2023-06-04T02:50:30;18.50;82.50
51811;DHT22;52468;40.116;18.296;2023-06-04T02:52:58;18.40;82.40
51811;DHT22;52468;40.116;18.296;2023-06-04T02:55:26;18.40;82.40
51811;DHT22;52468;40.116;18.296;2023-06-04T02:57:54;18.40;82.40
51811;DHT22;52468;40.116;18.296;2023-06-04T03:00:21;18.20;82.30
51811;DHT22;52468;40.116;18.296;2023-06-04T03:02:49;18.20;82.40
51811;DHT22;52468;40.116;18.296;2023-06-04T03:05:17;18.10;82.40
51811;DHT22;52468;40.116;18.296;2023-06-04T03:07:46;18.10;82.40
51811;DHT22;52468;40.116;18.296;2023-06-04T03:10:14;18.10;82.40
51811;DHT22;52468;40.116;18.296;2023-06-04T03:12:43;18.00;82.40
51811;DHT22;52468;40.116;18.296;2023-06-04T03:15:11;18.00;82.40
51811;DHT22;52468;40.116;18.296;2023-06-04T03:17:40;18.00;82.50
51811;DHT22;52468;40.116;18.296;2023-06-04T03:20:08;17.90;82.80
51811;DHT22;52468;40.116;18.296;2023-06-04T03:22:37;18.00;82.90
51811;DHT22;52468;40.116;18.296;2023-06-04T03:25:05;17.90;83.00
51811;DHT22;52468;40.116;18.296;2023-06-04T03:27:34;17.90;82.90
51811;DHT22;52468;40.116;18.296;2023-06-04T03:30:05;18.00;83.00
51811;DHT22;52468;40.116;18.296;2023-06-04T03:32:47;18.00;83.20
51811;DHT22;52468;40.116;18.296;2023-06-04T03:35:15;18.10;83.40
51811;DHT22;52468;40.116;18.296;2023-06-04T03:37:43;18.20;83.20
51811;DHT22;52468;40.116;18.296;2023-06-04T03:40:12;18.30;83.00
51811;DHT22;52468;40.116;18.296;2023-06-04T03:42:42;18.20;83.10
51811;DHT22;52468;40.116;18.296;2023-06-04T03:45:10;18.30;83.20
51811;DHT22;52468;40.116;18.296;2023-06-04T03:47:38;18.30;83.20
51811;DHT22;52468;40.116;18.296;2023-06-04T03:50:08;18.40;83.30
51811;DHT22;52468;40.116;18.296;2023-06-04T03:52:37;18.50;83.40
51811;DHT22;52468;40.116;18.296;2023-06-04T03:55:06;18.60;83.70
51811;DHT22;52468;40.116;18.296;2023-06-04T03:57:36;18.70;83.70
51811;DHT22;52468;40.116;18.296;2023-06-04T04:00:08;18.80;83.60
51811;DHT22;52468;40.116;18.296;2023-06-04T04:02:40;19.00;83.70
51811;DHT22;52468;40.116;18.296;2023-06-04T04:05:13;19.10;83.50
51811;DHT22;52468;40.116;18.296;2023-06-04T04:07:44;19.30;83.20
51811;DHT22;52468;40.116;18.296;2023-06-04T04:10:13;19.50;83.00
51811;DHT22;52468;40.116;18.296;2023-06-04T04:12:41;19.60;82.80
51811;DHT22;52468;40.116;18.296;2023-06-04T04:15:09;19.70;82.80
51811;DHT22;52468;40.116;18.296;2023-06-04T04:17:37;19.90;82.90
51811;DHT22;52468;40.116;18.296;2023-06-04T04:20:05;20.00;83.00
51811;DHT22;52468;40.116;18.296;2023-06-04T04:22:40;20.20;83.10
51811;DHT22;52468;40.116;18.296;2023-06-04T04:25:11;20.40;83.00
51811;DHT22;52468;40.116;18.296;2023-06-04T04:27:39;20.50;83.20
51811;DHT22;52468;40.116;18.296;2023-06-04T04:30:11;20.70;83.30
51811;DHT22;52468;40.116;18.296;2023-06-04T04:32:42;21.00;83.20
51811;DHT22;52468;40.116;18.296;2023-06-04T04:35:20;20.90;82.10
51811;DHT22;52468;40.116;18.296;2023-06-04T04:37:48;20.90;83.30
51811;DHT22;52468;40.116;18.296;2023-06-04T04:40:18;20.80;83.70
51811;DHT22;52468;40.116;18.296;2023-06-04T04:42:48;21.00;83.70
51811;DHT22;52468;40.116;18.296;2023-06-04T04:45:17;21.00;83.80
51811;DHT22;52468;40.116;18.296;2023-06-04T04:47:46;21.10;84.00
51811;DHT22;52468;40.116;18.296;2023-06-04T04:50:15;21.10;84.50
51811;DHT22;52468;40.116;18.296;2023-06-04T04:52:43;21.30;84.90
51811;DHT22;52468;40.116;18.296;2023-06-04T04:55:10;21.50;85.00
51811;DHT22;52468;40.116;18.296;2023-06-04T04:57:40;21.80;84.50
51811;DHT22;52468;40.116;18.296;2023-06-04T05:00:09;22.10;85.00
51811;DHT22;52468;40.116;18.296;2023-06-04T05:02:40;22.40;84.90
51811;DHT22;52468;40.116;18.296;2023-06-04T05:05:10;22.60;84.10
51811;DHT22;52468;40.116;18.296;2023-06-04T05:07:39;23.00;84.40
51811;DHT22;52468;40.116;18.296;2023-06-04T05:10:07;23.20;83.90
51811;DHT22;52468;40.116;18.296;2023-06-04T05:12:36;23.50;82.90
51811;DHT22;52468;40.116;18.296;2023-06-04T05:15:07;23.50;82.50
51811;DHT22;52468;40.116;18.296;2023-06-04T05:17:35;23.50;81.50
51811;DHT22;52468;40.116;18.296;2023-06-04T05:20:09;23.50;81.70
51811;DHT22;52468;40.116;18.296;2023-06-04T05:22:38;23.60;80.70
51811;DHT22;52468;40.116;18.296;2023-06-04T05:25:07;23.70;80.80
51811;DHT22;52468;40.116;18.296;2023-06-04T05:27:36;23.80;80.00
51811;DHT22;52468;40.116;18.296;2023-06-04T05:30:08;23.90;79.40
51811;DHT22;52468;40.116;18.296;2023-06-04T05:32:36;23.90;78.60
51811;DHT22;52468;40.116;18.296;2023-06-04T05:35:10;24.00;78.90
51811;DHT22;52468;40.116;18.296;2023-06-04T05:37:40;24.20;78.70
51811;DHT22;52468;40.116;18.296;2023-06-04T05:40:10;24.50;78.00
51811;DHT22;52468;40.116;18.296;2023-06-04T05:42:38;24.50;76.20
51811;DHT22;52468;40.116;18.296;2023-06-04T05:45:07;24.50;75.90
51811;DHT22;52468;40.116;18.296;2023-06-04T05:47:37;24.60;75.60
51811;DHT22;52468;40.116;18.296;2023-06-04T05:50:05;24.90;75.90
51811;DHT22;52468;40.116;18.296;2023-06-04T05:52:34;25.10;74.50
51811;DHT22;52468;40.116;18.296;2023-06-04T05:55:07;25.30;74.50
51811;DHT22;52468;40.116;18.296;2023-06-04T05:57:38;25.40;72.30
51811;DHT22;52468;40.116;18.296;2023-06-04T06:00:07;25.40;72.00
51811;DHT22;52468;40.116;18.296;2023-06-04T06:02:41;25.60;71.50
51811;DHT22;52468;40.116;18.296;2023-06-04T06:05:20;25.70;70.80
51811;DHT22;52468;40.116;18.296;2023-06-04T06:07:48;25.80;68.00
51811;DHT22;52468;40.116;18.296;2023-06-04T06:10:16;25.90;69.10
51811;DHT22;52468;40.116;18.296;2023-06-04T06:12:44;26.00;68.20
51811;DHT22;52468;40.116;18.296;2023-06-04T06:15:12;26.00;67.20
51811;DHT22;52468;40.116;18.296;2023-06-04T06:17:42;26.20;65.60
51811;DHT22;52468;40.116;18.296;2023-06-04T06:20:10;26.00;64.80
51811;DHT22;52468;40.116;18.296;2023-06-04T06:22:38;26.10;65.90
51811;DHT22;52468;40.116;18.296;2023-06-04T06:25:07;26.30;65.60
51811;DHT22;52468;40.116;18.296;2023-06-04T06:27:40;26.30;64.40
51811;DHT22;52468;40.116;18.296;2023-06-04T06:30:09;26.50;64.20
51811;DHT22;52468;40.116;18.296;2023-06-04T06:32:37;26.50;62.40
51811;DHT22;52468;40.116;18.296;2023-06-04T06:35:05;26.60;62.10
51811;DHT22;52468;40.116;18.296;2023-06-04T06:37:35;26.70;61.50
51811;DHT22;52468;40.116;18.296;2023-06-04T06:40:03;26.90;61.10
51811;DHT22;52468;40.116;18.296;2023-06-04T06:42:34;27.00;61.10
51811;DHT22;52468;40.116;18.296;2023-06-04T06:45:02;27.10;60.70
51811;DHT22;52468;40.116;18.296;2023-06-04T06:47:31;27.20;60.20
51811;DHT22;52468;40.116;18.296;2023-06-04T06:49:59;27.30;59.80
51811;DHT22;52468;40.116;18.296;2023-06-04T06:52:27;27.50;58.70
51811;DHT22;52468;40.116;18.296;2023-06-04T06:54:55;27.50;58.00
51811;DHT22;52468;40.116;18.296;2023-06-04T06:57:22;27.50;56.90
51811;DHT22;52468;40.116;18.296;2023-06-04T06:59:50;27.50;57.70
51811;DHT22;52468;40.116;18.296;2023-06-04T07:02:21;27.70;56.90
51811;DHT22;52468;40.116;18.296;2023-06-04T07:04:49;27.70;56.70
51811;DHT22;52468;40.116;18.296;2023-06-04T07:07:17;28.00;56.40
51811;DHT22;52468;40.116;18.296;2023-06-04T07:09:45;28.10;55.90
51811;DHT22;52468;40.116;18.296;2023-06-04T07:12:13;28.20;56.10
51811;DHT22;52468;40.116;18.296;2023-06-04T07:14:42;28.40;54.80
51811;DHT22;52468;40.116;18.296;2023-06-04T07:17:10;28.70;53.20
51811;DHT22;52468;40.116;18.296;2023-06-04T07:19:38;28.80;52.30
51811;DHT22;52468;40.116;18.296;2023-06-04T07:22:06;28.90;51.40
51811;DHT22;52468;40.116;18.296;2023-06-04T07:24:33;29.00;50.90
51811;DHT22;52468;40.116;18.296;2023-06-04T07:27:01;29.10;50.10
51811;DHT22;52468;40.116;18.296;2023-06-04T07:29:29;29.30;50.30
51811;DHT22;52468;40.116;18.296;2023-06-04T07:31:57;29.30;49.10
51811;DHT22;52468;40.116;18.296;2023-06-04T07:34:25;29.30;49.20
51811;DHT22;52468;40.116;18.296;2023-06-04T07:36:53;29.30;49.60
51811;DHT22;52468;40.116;18.296;2023-06-04T07:39:21;29.20;49.80
51811;DHT22;52468;40.116;18.296;2023-06-04T07:41:50;29.30;49.30
51811;DHT22;52468;40.116;18.296;2023-06-04T07:44:18;29.20;48.80
51811;DHT22;52468;40.116;18.296;2023-06-04T07:46:46;29.40;49.40
51811;DHT22;52468;40.116;18.296;2023-06-04T07:49:13;29.50;49.00
51811;DHT22;52468;40.116;18.296;2023-06-04T07:51:41;29.60;48.70
51811;DHT22;52468;40.116;18.296;2023-06-04T07:54:09;29.80;47.50
51811;DHT22;52468;40.116;18.296;2023-06-04T07:56:37;29.50;47.60
51811;DHT22;52468;40.116;18.296;2023-06-04T07:59:05;29.20;48.80
51811;DHT22;52468;40.116;18.296;2023-06-04T08:01:33;29.50;48.60
51811;DHT22;52468;40.116;18.296;2023-06-04T08:04:01;29.80;48.30
51811;DHT22;52468;40.116;18.296;2023-06-04T08:06:29;30.00;48.10
51811;DHT22;52468;40.116;18.296;2023-06-04T08:08:57;30.30;46.80
51811;DHT22;52468;40.116;18.296;2023-06-04T08:11:25;30.50;46.90
51811;DHT22;52468;40.116;18.296;2023-06-04T08:13:53;30.50;46.30
51811;DHT22;52468;40.116;18.296;2023-06-04T08:16:21;30.50;46.00
51811;DHT22;52468;40.116;18.296;2023-06-04T08:19:07;30.70;45.30
51811;DHT22;52468;40.116;18.296;2023-06-04T08:21:43;31.00;44.80
51811;DHT22;52468;40.116;18.296;2023-06-04T08:24:28;31.10;44.40
51811;DHT22;52468;40.116;18.296;2023-06-04T08:27:12;31.30;43.70
51811;DHT22;52468;40.116;18.296;2023-06-04T08:29:51;31.40;42.40
51811;DHT22;52468;40.116;18.296;2023-06-04T08:32:39;31.30;40.30
51811;DHT22;52468;40.116;18.296;2023-06-04T08:35:28;31.00;40.90
51811;DHT22;52468;40.116;18.296;2023-06-04T08:37:56;31.20;40.40
51811;DHT22;52468;40.116;18.296;2023-06-04T08:40:25;31.40;39.90
51811;DHT22;52468;40.116;18.296;2023-06-04T08:42:55;31.60;39.30
51811;DHT22;52468;40.116;18.296;2023-06-04T08:45:26;31.60;39.70
51811;DHT22;52468;40.116;18.296;2023-06-04T08:47:54;31.70;39.10
51811;DHT22;52468;40.116;18.296;2023-06-04T08:50:24;32.00;38.90
51811;DHT22;52468;40.116;18.296;2023-06-04T08:52:56;32.00;38.60
51811;DHT22;52468;40.116;18.296;2023-06-04T08:55:24;32.10;38.30
51811;DHT22;52468;40.116;18.296;2023-06-04T08:57:52;32.00;37.90
51811;DHT22;52468;40.116;18.296;2023-06-04T09:00:21;32.00;38.80
51811;DHT22;52468;40.116;18.296;2023-06-04T09:02:50;32.00;39.00
51811;DHT22;52468;40.116;18.296;2023-06-04T09:05:22;32.00;38.10
51811;DHT22;52468;40.116;18.296;2023-06-04T09:07:53;32.10;38.90
51811;DHT22;52468;40.116;18.296;2023-06-04T09:10:24;32.30;38.70
51811;DHT22;52468;40.116;18.296;2023-06-04T09:12:54;32.30;38.50
51811;DHT22;52468;40.116;18.296;2023-06-04T09:15:24;32.50;38.70
51811;DHT22;52468;40.116;18.296;2023-06-04T09:17:52;32.60;38.60
51811;DHT22;52468;40.116;18.296;2023-06-04T09:20:23;32.80;38.60
51811;DHT22;52468;40.116;18.296;2023-06-04T09:22:52;32.80;38.60
51811;DHT22;52468;40.116;18.296;2023-06-04T09:25:27;32.80;38.70
51811;DHT22;52468;40.116;18.296;2023-06-04T09:27:58;32.20;39.20
51811;DHT22;52468;40.116;18.296;2023-06-04T09:30:33;31.80;40.20
51811;DHT22;52468;40.116;18.296;2023-06-04T09:33:08;31.50;40.50
51811;DHT22;52468;40.116;18.296;2023-06-04T09:35:36;31.70;40.30
51811;DHT22;52468;40.116;18.296;2023-06-04T09:38:05;32.20;40.00
51811;DHT22;52468;40.116;18.296;2023-06-04T09:40:37;32.70;38.10
51811;DHT22;52468;40.116;18.296;2023-06-04T09:43:05;33.00;35.70
51811;DHT22;52468;40.116;18.296;2023-06-04T09:45:34;32.60;35.20
51811;DHT22;52468;40.116;18.296;2023-06-04T09:48:03;32.00;36.60
51811;DHT22;52468;40.116;18.296;2023-06-04T09:50:34;32.20;36.60
51811;DHT22;52468;40.116;18.296;2023-06-04T09:53:18;32.60;36.40
51811;DHT22;52468;40.116;18.296;2023-06-04T09:56:00;33.10;36.30
51811;DHT22;52468;40.116;18.296;2023-06-04T09:58:29;33.80;35.40
51811;DHT22;52468;40.116;18.296;2023-06-04T10:00:59;34.10;34.40
51811;DHT22;52468;40.116;18.296;2023-06-04T10:03:32;34.50;33.60
51811;DHT22;52468;40.116;18.296;2023-06-04T10:06:04;34.80;32.50
51811;DHT22;52468;40.116;18.296;2023-06-04T10:08:33;34.90;32.50
51811;DHT22;52468;40.116;18.296;2023-06-04T10:11:02;35.10;32.00
51811;DHT22;52468;40.116;18.296;2023-06-04T10:13:36;35.50;31.60
51811;DHT22;52468;40.116;18.296;2023-06-04T10:16:07;35.70;30.90
51811;DHT22;52468;40.116;18.296;2023-06-04T10:18:37;35.70;30.30
51811;DHT22;52468;40.116;18.296;2023-06-04T10:21:06;35.90;30.90
51811;DHT22;52468;40.116;18.296;2023-06-04T10:23:36;36.00;31.50
51811;DHT22;52468;40.116;18.296;2023-06-04T10:26:04;36.10;32.80
51811;DHT22;52468;40.116;18.296;2023-06-04T10:28:33;35.90;34.00
51811;DHT22;52468;40.116;18.296;2023-06-04T10:31:01;35.90;34.20
51811;DHT22;52468;40.116;18.296;2023-06-04T10:33:30;35.80;34.90
51811;DHT22;52468;40.116;18.296;2023-06-04T10:35:58;35.90;34.40
51811;DHT22;52468;40.116;18.296;2023-06-04T10:38:26;35.80;35.60
51811;DHT22;52468;40.116;18.296;2023-06-04T10:40:54;36.00;35.90
51811;DHT22;52468;40.116;18.296;2023-06-04T10:43:22;36.30;35.40
51811;DHT22;52468;40.116;18.296;2023-06-04T10:45:57;36.00;34.90
51811;DHT22;52468;40.116;18.296;2023-06-04T10:48:24;35.40;35.10
51811;DHT22;52468;40.116;18.296;2023-06-04T10:50:53;35.10;35.30
51811;DHT22;52468;40.116;18.296;2023-06-04T10:53:21;35.00;35.60
51811;DHT22;52468;40.116;18.296;2023-06-04T10:55:50;35.30;35.50
51811;DHT22;52468;40.116;18.296;2023-06-04T10:58:18;35.30;36.00
51811;DHT22;52468;40.116;18.296;2023-06-04T11:00:49;35.40;36.00
51811;DHT22;52468;40.116;18.296;2023-06-04T11:03:17;35.30;35.30
51811;DHT22;52468;40.116;18.296;2023-06-04T11:05:46;35.80;34.30
51811;DHT22;52468;40.116;18.296;2023-06-04T11:08:29;36.00;33.50
51811;DHT22;52468;40.116;18.296;2023-06-04T11:10:57;36.40;33.30
51811;DHT22;52468;40.116;18.296;2023-06-04T11:13:25;36.60;32.30
51811;DHT22;52468;40.116;18.296;2023-06-04T11:15:53;36.90;32.10
51811;DHT22;52468;40.116;18.296;2023-06-04T11:18:22;36.50;31.60
51811;DHT22;52468;40.116;18.296;2023-06-04T11:20:59;36.60;31.50
51811;DHT22;52468;40.116;18.296;2023-06-04T11:23:27;37.00;31.50
51811;DHT22;52468;40.116;18.296;2023-06-04T11:25:55;37.20;30.80
51811;DHT22;52468;40.116;18.296;2023-06-04T11:28:23;37.20;30.60
51811;DHT22;52468;40.116;18.296;2023-06-04T11:30:58;37.00;30.40
51811;DHT22;52468;40.116;18.296;2023-06-04T11:33:26;37.00;31.10
51811;DHT22;52468;40.116;18.296;2023-06-04T11:35:54;36.90;31.00
51811;DHT22;52468;40.116;18.296;2023-06-04T11:38:22;36.90;31.10
51811;DHT22;52468;40.116;18.296;2023-06-04T11:40:59;36.80;31.20
51811;DHT22;52468;40.116;18.296;2023-06-04T11:43:28;36.80;31.20
51811;DHT22;52468;40.116;18.296;2023-06-04T11:45:57;37.00;30.70
51811;DHT22;52468;40.116;18.296;2023-06-04T11:48:25;37.30;30.70
51811;DHT22;52468;40.116;18.296;2023-06-04T11:50:53;37.60;30.00
51811;DHT22;52468;40.116;18.296;2023-06-04T11:53:21;37.90;30.40
51811;DHT22;52468;40.116;18.296;2023-06-04T11:55:49;38.40;29.50
51811;DHT22;52468;40.116;18.296;2023-06-04T11:58:17;38.90;28.40
51811;DHT22;52468;40.116;18.296;2023-06-04T12:00:45;38.90;28.40
51811;DHT22;52468;40.116;18.296;2023-06-04T12:03:13;39.30;27.90
51811;DHT22;52468;40.116;18.296;2023-06-04T12:05:41;39.00;28.20
51811;DHT22;52468;40.116;18.296;2023-06-04T12:08:10;38.50;28.70
51811;DHT22;52468;40.116;18.296;2023-06-04T12:10:42;37.80;29.40
51811;DHT22;52468;40.116;18.296;2023-06-04T12:13:10;38.10;29.00
51811;DHT22;52468;40.116;18.296;2023-06-04T12:15:38;38.70;28.10
51811;DHT22;52468;40.116;18.296;2023-06-04T12:18:06;39.10;28.00
51811;DHT22;52468;40.116;18.296;2023-06-04T12:20:39;39.10;28.50
51811;DHT22;52468;40.116;18.296;2023-06-04T12:23:07;39.00;27.60
51811;DHT22;52468;40.116;18.296;2023-06-04T12:25:35;38.80;28.30
51811;DHT22;52468;40.116;18.296;2023-06-04T12:28:05;38.80;27.80
51811;DHT22;52468;40.116;18.296;2023-06-04T12:30:39;38.70;28.00
51811;DHT22;52468;40.116;18.296;2023-06-04T12:33:10;38.40;28.80
51811;DHT22;52468;40.116;18.296;2023-06-04T12:35:37;38.50;28.90
51811;DHT22;52468;40.116;18.296;2023-06-04T12:40:36;39.50;28.20
51811;DHT22;52468;40.116;18.296;2023-06-04T12:43:05;41.00;26.30
51811;DHT22;52468;40.116;18.296;2023-06-04T12:45:34;41.70;25.00
51811;DHT22;52468;40.116;18.296;2023-06-04T12:48:02;42.50;24.30
51811;DHT22;52468;40.116;18.296;2023-06-04T12:50:30;43.50;22.80
51811;DHT22;52468;40.116;18.296;2023-06-04T12:52:58;44.00;22.70
51811;DHT22;52468;40.116;18.296;2023-06-04T12:55:26;44.70;21.80
51811;DHT22;52468;40.116;18.296;2023-06-04T12:57:54;45.20;21.60
51811;DHT22;52468;40.116;18.296;2023-06-04T13:00:22;45.10;21.00
51811;DHT22;52468;40.116;18.296;2023-06-04T13:02:50;45.00;21.10
51811;DHT22;52468;40.116;18.296;2023-06-04T13:05:18;45.10;21.10
51811;DHT22;52468;40.116;18.296;2023-06-04T13:10:14;46.40;19.90
51811;DHT22;52468;40.116;18.296;2023-06-04T13:12:42;47.00;19.30
51811;DHT22;52468;40.116;18.296;2023-06-04T13:15:10;47.10;19.50
51811;DHT22;52468;40.116;18.296;2023-06-04T13:17:38;46.50;19.80
51811;DHT22;52468;40.116;18.296;2023-06-04T13:20:07;46.40;20.20
51811;DHT22;52468;40.116;18.296;2023-06-04T13:22:35;46.80;19.60
51811;DHT22;52468;40.116;18.296;2023-06-04T13:25:03;47.20;19.20
51811;DHT22;52468;40.116;18.296;2023-06-04T13:27:31;46.70;19.40
51811;DHT22;52468;40.116;18.296;2023-06-04T13:29:58;46.70;19.80
51811;DHT22;52468;40.116;18.296;2023-06-04T13:32:26;47.20;19.40
51811;DHT22;52468;40.116;18.296;2023-06-04T13:34:54;46.40;19.60
51811;DHT22;52468;40.116;18.296;2023-06-04T13:37:22;46.00;20.40
51811;DHT22;52468;40.116;18.296;2023-06-04T13:39:50;46.70;20.00
51811;DHT22;52468;40.116;18.296;2023-06-04T13:42:18;47.10;19.40
51811;DHT22;52468;40.116;18.296;2023-06-04T13:44:46;47.10;19.60
51811;DHT22;52468;40.116;18.296;2023-06-04T13:47:13;47.30;19.30
51811;DHT22;52468;40.116;18.296;2023-06-04T13:49:41;47.60;18.90
51811;DHT22;52468;40.116;18.296;2023-06-04T13:52:09;47.50;18.80
51811;DHT22;52468;40.116;18.296;2023-06-04T13:54:37;47.30;19.00
51811;DHT22;52468;40.116;18.296;2023-06-04T13:57:06;47.80;18.90
51811;DHT22;52468;40.116;18.296;2023-06-04T13:59:34;48.30;18.30
51811;DHT22;52468;40.116;18.296;2023-06-04T14:02:02;48.70;17.90
51811;DHT22;52468;40.116;18.296;2023-06-04T14:04:30;49.10;17.70
51811;DHT22;52468;40.116;18.296;2023-06-04T14:06:58;49.00;17.50
51811;DHT22;52468;40.116;18.296;2023-06-04T14:09:26;49.00;17.70
51811;DHT22;52468;40.116;18.296;2023-06-04T14:11:54;49.00;17.70
51811;DHT22;52468;40.116;18.296;2023-06-04T14:14:22;48.70;17.90
51811;DHT22;52468;40.116;18.296;2023-06-04T14:16:50;48.40;17.90
51811;DHT22;52468;40.116;18.296;2023-06-04T14:19:17;48.20;18.20
51811;DHT22;52468;40.116;18.296;2023-06-04T14:21:48;48.30;18.10
51811;DHT22;52468;40.116;18.296;2023-06-04T14:24:16;48.00;17.90
51811;DHT22;52468;40.116;18.296;2023-06-04T14:26:44;47.60;17.90
51811;DHT22;52468;40.116;18.296;2023-06-04T14:29:13;47.50;18.30
51811;DHT22;52468;40.116;18.296;2023-06-04T14:31:41;47.80;18.10
51811;DHT22;52468;40.116;18.296;2023-06-04T14:34:09;48.00;17.90
51811;DHT22;52468;40.116;18.296;2023-06-04T14:36:37;48.00;17.90
51811;DHT22;52468;40.116;18.296;2023-06-04T14:39:05;48.50;17.50
51811;DHT22;52468;40.116;18.296;2023-06-04T14:41:33;49.00;17.10
51811;DHT22;52468;40.116;18.296;2023-06-04T14:44:01;48.80;17.40
51811;DHT22;52468;40.116;18.296;2023-06-04T14:46:29;48.30;17.60
51811;DHT22;52468;40.116;18.296;2023-06-04T14:48:57;47.30;18.30
51811;DHT22;52468;40.116;18.296;2023-06-04T14:51:25;46.20;19.00
51811;DHT22;52468;40.116;18.296;2023-06-04T14:53:53;45.50;19.80
51811;DHT22;52468;40.116;18.296;2023-06-04T14:56:20;45.50;20.00
51811;DHT22;52468;40.116;18.296;2023-06-04T14:58:50;45.30;19.70
51811;DHT22;52468;40.116;18.296;2023-06-04T15:01:17;44.40;20.30
51811;DHT22;52468;40.116;18.296;2023-06-04T15:03:45;44.00;21.00
51811;DHT22;52468;40.116;18.296;2023-06-04T15:06:13;43.90;21.00
51811;DHT22;52468;40.116;18.296;2023-06-04T15:08:45;44.00;21.10
51811;DHT22;52468;40.116;18.296;2023-06-04T15:11:14;44.50;20.70
51811;DHT22;52468;40.116;18.296;2023-06-04T15:13:43;45.50;19.90
51811;DHT22;52468;40.116;18.296;2023-06-04T15:16:10;46.00;19.70
51811;DHT22;52468;40.116;18.296;2023-06-04T15:18:38;46.60;18.90
51811;DHT22;52468;40.116;18.296;2023-06-04T15:21:06;47.30;18.00
51811;DHT22;52468;40.116;18.296;2023-06-04T15:23:35;47.40;18.20
51811;DHT22;52468;40.116;18.296;2023-06-04T15:26:04;47.50;18.60
51811;DHT22;52468;40.116;18.296;2023-06-04T15:28:32;47.60;18.60
51811;DHT22;52468;40.116;18.296;2023-06-04T15:31:00;47.80;17.90
51811;DHT22;52468;40.116;18.296;2023-06-04T15:33:28;47.70;17.90
51811;DHT22;52468;40.116;18.296;2023-06-04T15:35:57;47.50;18.10
51811;DHT22;52468;40.116;18.296;2023-06-04T15:38:25;46.20;19.20
51811;DHT22;52468;40.116;18.296;2023-06-04T15:40:53;45.80;20.00
51811;DHT22;52468;40.116;18.296;2023-06-04T15:43:21;45.90;19.20